createdAt,value
2023-04-23T18:49:11.575Z,53.52
2023-04-23T18:50:45.820Z,54.16
2023-04-23T18:51:52.992Z,52.94
2023-04-23T18:52:56.898Z,52.94
2023-04-23T18:54:02.286Z,53.12
2023-04-23T18:55:06.469Z,51.89
2023-04-23T18:56:10.475Z,52.47
2023-04-23T18:57:14.406Z,52.22
2023-04-23T18:58:18.247Z,52.46
2023-04-23T18:59:22.210Z,52.46
2023-04-23T19:00:31.110Z,52.26
2023-04-23T19:01:34.961Z,51.71
2023-04-23T19:02:40.779Z,51.49
2023-04-23T19:03:44.864Z,50.95
2023-04-23T19:04:49.241Z,50.95
2023-04-23T19:05:55.736Z,51.53
2023-04-23T19:07:00.467Z,51.79
2023-04-23T19:08:04.394Z,52.42
2023-04-23T19:09:08.466Z,52.42
2023-04-23T19:10:16.202Z,51.95
2023-04-23T19:11:20.233Z,51.95
2023-04-23T19:12:24.250Z,51.73
2023-04-23T19:13:32.327Z,52.12
2023-04-23T19:14:36.589Z,52.12
2023-04-23T19:15:40.682Z,51.92
2023-04-23T19:16:44.819Z,52.00
2023-04-23T19:17:56.766Z,52.00
2023-04-23T19:19:00.728Z,53.10
2023-04-23T19:20:04.977Z,53.17
2023-04-23T19:21:08.826Z,53.90
2023-04-23T19:22:12.767Z,53.90
2023-04-23T19:23:16.658Z,54.37
2023-04-23T19:24:20.624Z,53.49
2023-04-23T19:25:26.146Z,54.05
2023-04-23T19:26:30.223Z,54.05
2023-04-23T19:27:34.893Z,53.46
2023-04-23T19:28:38.843Z,54.13
2023-04-23T19:29:43.050Z,54.26
2023-04-23T19:30:47.225Z,54.35
2023-04-23T19:31:51.151Z,54.13
2023-04-23T19:32:55.254Z,54.17
2023-04-23T19:33:59.253Z,54.37
2023-04-23T19:35:04.133Z,54.37
2023-04-23T19:36:09.851Z,54.75
2023-04-23T19:37:13.722Z,54.34
2023-04-23T19:40:00.945Z,54.99
2023-04-23T19:41:06.393Z,54.22
2023-04-23T19:42:30.875Z,54.92
2023-04-23T19:43:34.946Z,53.75
2023-04-23T19:44:41.508Z,53.38
2023-04-23T19:45:45.454Z,53.88
2023-04-23T19:46:49.326Z,54.93
2023-04-23T19:47:54.018Z,54.56
2023-04-23T19:48:57.921Z,54.85
2023-04-23T19:50:05.833Z,55.16
2023-04-23T19:51:11.444Z,55.56
2023-04-23T19:52:37.223Z,55.56
2023-04-23T19:53:41.247Z,55.76
2023-04-23T19:54:48.412Z,54.67
2023-04-23T19:55:52.329Z,55.48
2023-04-23T19:57:02.320Z,56.30
2023-04-23T19:58:08.328Z,57.93
2023-04-23T19:59:11.941Z,58.49
2023-04-23T20:00:20.560Z,58.28
2023-04-23T20:01:29.047Z,57.27
2023-04-23T20:02:39.693Z,59.96
2023-04-23T20:04:01.785Z,59.96
2023-04-23T20:05:06.243Z,59.14
2023-04-23T20:06:10.305Z,59.26
2023-04-23T20:07:15.391Z,60.56
2023-04-23T20:08:19.323Z,60.56
2023-04-23T20:09:23.271Z,60.62
2023-04-23T20:10:29.956Z,62.04
2023-04-23T20:11:37.202Z,62.04
2023-04-23T20:12:41.062Z,62.84
2023-04-23T20:13:56.935Z,62.84
2023-04-23T20:15:00.876Z,63.69
2023-04-23T20:16:05.266Z,63.69
2023-04-23T20:17:11.293Z,63.83
2023-04-23T20:18:16.760Z,64.27
2023-04-23T20:19:20.611Z,63.22
2023-04-23T20:20:24.683Z,63.22
2023-04-23T20:21:28.686Z,64.18
2023-04-23T20:22:36.834Z,63.16
2023-04-23T20:23:40.854Z,62.57
2023-04-23T20:24:46.641Z,62.57
2023-04-23T20:25:50.694Z,65.62
2023-04-23T20:26:54.773Z,65.62
2023-04-23T20:27:58.860Z,63.55
2023-04-23T20:29:04.783Z,63.43
2023-04-23T20:30:10.969Z,62.98
2023-04-23T20:31:17.993Z,65.43
2023-04-23T20:32:22.544Z,65.43
2023-04-23T20:33:26.501Z,66.34
2023-04-23T20:34:30.559Z,65.93
2023-04-23T20:35:34.542Z,66.61
2023-04-23T20:36:38.513Z,66.61
2023-04-23T20:37:42.373Z,67.63
2023-04-23T20:38:57.625Z,67.63
2023-04-23T20:39:51.830Z,65.39
2023-04-23T20:40:55.672Z,63.51
2023-04-23T20:42:01.208Z,63.51
2023-04-23T20:43:05.348Z,63.21
2023-04-23T20:44:10.048Z,64.51
2023-04-23T20:45:13.977Z,64.93
2023-04-23T20:46:18.042Z,64.43
2023-04-23T20:47:24.667Z,64.43
2023-04-23T20:48:30.806Z,64.90
2023-04-23T20:49:36.405Z,64.90
2023-04-23T20:50:43.994Z,65.44
2023-04-23T20:51:47.608Z,65.04
2023-04-23T20:52:52.481Z,65.02
2023-04-23T20:53:58.121Z,65.18
2023-04-23T20:55:05.488Z,65.36
2023-04-23T20:56:08.942Z,65.36
2023-04-23T20:57:12.924Z,65.16
2023-04-23T20:58:16.978Z,64.76
2023-04-23T20:59:22.339Z,64.92
2023-04-23T21:00:27.353Z,65.26
2023-04-23T21:01:31.406Z,65.26
2023-04-23T21:02:35.986Z,65.45
2023-04-23T21:03:40.976Z,65.50
2023-04-23T21:04:44.933Z,64.83
2023-04-23T21:05:48.780Z,65.71
2023-04-23T21:06:52.785Z,65.75
2023-04-23T21:07:56.701Z,65.75
2023-04-23T21:09:00.729Z,66.45
2023-04-23T21:10:05.993Z,67.02
2023-04-23T21:11:17.738Z,67.51
2023-04-23T21:12:21.841Z,67.51
2023-04-23T21:13:25.943Z,70.00
2023-04-23T21:14:30.274Z,65.67
2023-04-23T21:15:34.208Z,65.67
2023-04-23T21:16:38.883Z,65.91
2023-04-23T21:17:43.147Z,66.26
2023-04-23T21:18:47.055Z,66.39
2023-04-23T21:19:51.592Z,66.88
2023-04-23T21:20:55.559Z,66.88
2023-04-23T21:22:01.517Z,66.22
2023-04-23T21:23:05.276Z,66.97
2023-04-23T21:24:09.207Z,66.97
2023-04-23T21:25:13.036Z,67.77
2023-04-23T21:26:17.061Z,68.75
2023-04-23T21:27:20.974Z,68.75
2023-04-23T21:28:25.343Z,68.65
2023-04-23T21:29:31.577Z,68.87
2023-04-23T21:30:48.006Z,70.22
2023-04-23T21:31:53.224Z,71.46
2023-04-23T21:32:57.334Z,71.63
2023-04-23T21:34:01.411Z,72.89
2023-04-23T21:35:06.074Z,73.25
2023-04-23T21:36:11.599Z,73.14
2023-04-23T21:37:15.435Z,70.42
2023-04-23T21:38:20.788Z,69.37
2023-04-23T21:39:24.669Z,68.80
2023-04-23T21:40:28.652Z,69.82
2023-04-23T21:41:32.711Z,68.79
2023-04-23T21:42:36.890Z,70.51
2023-04-23T21:43:40.825Z,70.53
2023-04-23T21:44:44.815Z,70.89
2023-04-23T21:45:48.850Z,70.89
2023-04-23T21:46:52.866Z,70.83
2023-04-23T21:47:56.899Z,71.52
2023-04-23T21:49:00.884Z,71.18
2023-04-23T21:50:05.133Z,70.98
2023-04-23T21:51:09.118Z,70.98
2023-04-23T21:52:13.027Z,71.31
2023-04-23T21:53:16.876Z,70.92
2023-04-23T21:54:21.206Z,71.06
2023-04-23T21:55:27.859Z,71.06
2023-04-23T21:56:31.947Z,71.35
2023-04-23T21:57:35.944Z,71.84
2023-04-23T21:58:39.868Z,73.71
2023-04-23T21:59:44.103Z,73.81
2023-04-23T22:00:48.296Z,74.27
2023-04-23T22:01:52.268Z,74.80
2023-04-23T22:02:58.052Z,73.45
2023-04-23T22:04:07.866Z,73.45
2023-04-23T22:05:09.131Z,72.30
2023-04-23T22:06:13.641Z,75.30
2023-04-23T22:07:17.621Z,75.95
2023-04-23T22:08:21.540Z,77.02
2023-04-23T22:09:25.558Z,77.02
2023-04-23T22:10:29.596Z,78.40
2023-04-23T22:11:33.575Z,79.23
2023-04-23T22:12:38.488Z,79.23
2023-04-23T22:13:45.493Z,78.11
2023-04-23T22:14:49.314Z,78.99
2023-04-23T22:15:53.333Z,78.99
2023-04-23T22:16:57.366Z,79.84
2023-04-23T22:18:01.313Z,81.55
2023-04-23T22:19:05.245Z,82.28
2023-04-23T22:20:11.615Z,82.63
2023-04-23T22:21:15.559Z,82.63
2023-04-23T22:23:50.915Z,85.89
2023-04-23T22:24:54.803Z,85.89
2023-04-23T22:25:58.749Z,85.52
2023-04-23T22:27:02.599Z,84.85
2023-04-23T22:28:06.572Z,85.16
2023-04-23T22:29:10.644Z,84.86
2023-04-23T22:30:14.836Z,84.86
2023-04-23T22:31:20.551Z,81.38
2023-04-23T22:32:24.539Z,81.38
2023-04-23T22:33:28.435Z,80.12
2023-04-23T22:34:32.492Z,80.12
2023-04-23T22:35:36.454Z,80.00
2023-04-23T22:36:40.386Z,80.00
2023-04-23T22:37:47.104Z,79.35
2023-04-23T22:38:50.063Z,79.50
2023-04-23T22:39:54.091Z,79.50
2023-04-23T22:40:58.011Z,80.06
2023-04-23T22:42:01.854Z,80.06
2023-04-23T22:43:05.739Z,79.42
2023-04-23T22:44:09.632Z,79.25
2023-04-23T22:45:13.476Z,78.63
2023-04-23T22:46:17.484Z,78.95
2023-04-23T22:47:21.598Z,78.95
2023-04-23T22:48:25.617Z,79.83
2023-04-23T22:49:29.597Z,79.83
2023-04-23T22:50:33.701Z,79.60
2023-04-23T22:51:37.614Z,79.20
2023-04-23T22:52:41.623Z,79.20
2023-04-23T22:53:47.076Z,80.26
2023-04-23T22:54:52.653Z,79.88
2023-04-23T22:55:58.310Z,78.17
2023-04-23T22:57:02.670Z,81.23
2023-04-23T22:58:07.935Z,81.23
2023-04-23T22:59:13.601Z,81.49
2023-04-23T23:00:17.577Z,81.36
2023-04-23T23:01:21.634Z,81.69
2023-04-23T23:02:25.635Z,83.52
2023-04-23T23:03:29.884Z,83.55
2023-04-23T23:04:34.226Z,83.55
2023-04-23T23:05:38.261Z,84.44
2023-04-23T23:06:42.248Z,84.57
2023-04-23T23:07:46.060Z,84.57
2023-04-23T23:08:50.068Z,85.65
2023-04-23T23:09:53.974Z,86.77
2023-04-23T23:10:57.986Z,86.75
2023-04-23T23:12:03.518Z,84.87
2023-04-23T23:13:07.608Z,84.46
2023-04-23T23:14:11.650Z,84.46
2023-04-23T23:15:15.655Z,84.38
2023-04-23T23:16:19.564Z,83.97
2023-04-23T23:17:23.478Z,83.97
2023-04-23T23:18:27.436Z,82.47
2023-04-23T23:19:31.436Z,82.95
2023-04-23T23:20:35.468Z,82.95
2023-04-23T23:21:39.509Z,85.32
2023-04-23T23:22:43.584Z,87.28
2023-04-23T23:23:47.460Z,85.13
2023-04-23T23:24:51.437Z,85.16
2023-04-23T23:25:55.630Z,88.90
2023-04-23T23:26:59.761Z,90.51
2023-04-23T23:28:03.593Z,90.54
2023-04-23T23:29:07.604Z,90.54
2023-04-23T23:30:11.755Z,88.64
2023-04-23T23:31:15.804Z,88.64
2023-04-23T23:32:19.720Z,82.36
2023-04-23T23:33:23.784Z,82.36
2023-04-23T23:34:29.705Z,85.48
2023-04-23T23:35:33.225Z,85.39
2023-04-23T23:36:38.563Z,85.39
2023-04-23T23:37:42.542Z,90.09
2023-04-23T23:38:46.434Z,89.60
2023-04-23T23:39:50.249Z,89.60
2023-04-23T23:40:54.182Z,89.38
2023-04-23T23:41:59.997Z,89.59
2023-04-23T23:43:03.930Z,89.92
2023-04-23T23:44:07.720Z,87.36
2023-04-23T23:45:11.940Z,83.55
2023-04-23T23:46:16.175Z,83.55
2023-04-23T23:47:20.299Z,80.05
2023-04-23T23:48:24.322Z,86.20
2023-04-23T23:49:28.101Z,88.64
2023-04-23T23:50:32.786Z,89.79
2023-04-23T23:51:39.685Z,89.59
2023-04-23T23:52:43.648Z,91.49
2023-04-23T23:53:47.443Z,92.39
2023-04-23T23:54:51.413Z,93.50
2023-04-23T23:55:55.256Z,93.37
2023-04-23T23:56:59.204Z,89.74
2023-04-23T23:58:03.005Z,89.96
2023-04-23T23:59:06.893Z,89.55
